KGPT/GPT METAR and TAF weather

Enter ICAO airport designator
Station Type Date Time Source
KGPT METAR 2018/12/18 19:53 UTC NOAA

KGPT 181953Z 16006KT 10SM CLR 18/09 A3009 RMK AO2 SLP189 T01780094


Station Type Date Time Source
KGPT Decoded METAR 2018/12/18 19:53 UTC NOAA

GULFPORT-BILOXI REG AIRPORT , MS, United States (KGPT) 30-25N 089-05W 14M
Dec 18, 2018 - 02:53 PM EST / 2018.12.18 1953 UTC
Wind: from the SSE (160 degrees) at 7 MPH (6 KT):0
Visibility: 10 mile(s):0
Sky conditions: clear
Temperature: 64.0 F (17.8 C)
Dew Point: 48.9 F (9.4 C)
Relative Humidity: 57%
Pressure (altimeter): 30.09 in. Hg (1018 hPa)
ob: KGPT 181953Z 16006KT 10SM CLR 18/09 A3009 RMK AO2 SLP189 T01780094
cycle: 20

Station Type Date Time Source
KGPT TAF 2018/12/18 18:39 UTC NOAA

KGPT 181737Z 1818/1918 08004KT P6SM SCT250
FM190700 VRB03KT 5SM BR BKN250
FM190900 VRB03KT 3SM BR OVC240
FM191100 VRB04KT P6SM BKN230


Example: see airport list